Terminal Aerodrome Forecast
Issued by NWS Goodland, KS

Home | Current Version | Previous Version | Text Only | Print | Product List | Glossary On
Versions: 1 2 3 4 5 6 7 8 9 10 11 12 13 14 15 16
000
FTUS43 KGLD 261900 AAA
TAFGLD
TAF AMD
KGLD 261933Z 2620/2718 35013G20KT P6SM FEW200
     FM262200 02010KT P6SM SCT100
     FM270100 03013KT P6SM VCTS SCT050CB BKN100
     FM270600 04009KT P6SM BKN200=

USA.gov is the U.S. government's official web portal to all federal, state and local government web resources and services.